Time;durP1;ratioP1;P1;durP2;ratioP2;P2;SDS_P1;SDS_P2;PMS_P1;PMS_P2;Temp;Humidity;BMP_temperature;BMP_pressure;BME280_temperature;BME280_humidity;BME280_pressure;Samples;Min_cycle;Max_cycle;Signal;HPM_P1;HPM_P2
2021/09/08 00:01:07;;;;;;;0.30;0.30;;;;;;;;;;4967508;28;20492;-64
2021/09/08 00:03:33;;;;;;;0.30;0.30;;;;;;;;;;4988365;28;20436;-65
2021/09/08 00:05:59;;;;;;;0.30;0.30;;;;;;;;;;4993963;28;20904;-66
2021/09/08 00:08:25;;;;;;;0.30;0.30;;;;;;;;;;4993424;28;20440;-64
2021/09/08 00:10:52;;;;;;;0.30;0.30;;;;;;;;;;4992464;28;20480;-64
2021/09/08 00:13:18;;;;;;;0.30;0.30;;;;;;;;;;4992506;28;20181;-65
2021/09/08 00:15:44;;;;;;;0.30;0.30;;;;;;;;;;4993674;28;20425;-65
2021/09/08 00:18:10;;;;;;;0.30;0.30;;;;;;;;;;4985330;28;20517;-64
2021/09/08 00:20:36;;;;;;;0.30;0.30;;;;;;;;;;4980470;28;20290;-64
2021/09/08 00:23:02;;;;;;;0.30;0.30;;;;;;;;;;4992798;28;20468;-66
2021/09/08 00:25:28;;;;;;;0.30;0.30;;;;;;;;;;4992318;28;20506;-67
2021/09/08 00:27:54;;;;;;;0.30;0.30;;;;;;;;;;4992827;28;20479;-64
2021/09/08 00:30:20;;;;;;;0.30;0.30;;;;;;;;;;4991101;28;20477;-66
2021/09/08 00:32:46;;;;;;;0.30;0.30;;;;;;;;;;4983838;28;20296;-66
2021/09/08 00:35:12;;;;;;;0.30;0.30;;;;;;;;;;4992817;28;20528;-64
2021/09/08 00:37:39;;;;;;;0.30;0.30;;;;;;;;;;4989743;28;20221;-64
2021/09/08 00:40:06;;;;;;;0.30;0.30;;;;;;;;;;4992278;28;20461;-65
2021/09/08 00:42:32;;;;;;;0.30;0.30;;;;;;;;;;4993326;28;20429;-65
2021/09/08 00:44:58;;;;;;;0.30;0.30;;;;;;;;;;4991960;28;20477;-64
2021/09/08 00:47:24;;;;;;;0.30;0.30;;;;;;;;;;4975289;28;20427;-64
2021/09/08 00:49:50;;;;;;;0.30;0.30;;;;;;;;;;4986869;28;20203;-64
2021/09/08 00:52:16;;;;;;;0.30;0.30;;;;;;;;;;4989846;28;20838;-64
2021/09/08 00:54:47;;;;;;;0.30;0.30;;;;;;;;;;4991095;28;20467;-64
2021/09/08 00:57:13;;;;;;;0.30;0.30;;;;;;;;;;4977792;28;21101;-65
2021/09/08 00:59:41;;;;;;;0.30;0.30;;;;;;;;;;4991571;28;20469;-65
2021/09/08 01:02:07;;;;;;;0.30;0.30;;;;;;;;;;4989652;28;20482;-67
2021/09/08 01:04:33;;;;;;;0.30;0.30;;;;;;;;;;4992858;28;20824;-68
2021/09/08 01:07:00;;;;;;;0.30;0.30;;;;;;;;;;4991626;28;20213;-67
2021/09/08 01:09:26;;;;;;;0.30;0.30;;;;;;;;;;4992518;28;20406;-63
2021/09/08 01:11:52;;;;;;;0.30;0.30;;;;;;;;;;4986176;28;20312;-64
2021/09/08 01:14:18;;;;;;;0.30;0.30;;;;;;;;;;4991025;28;20468;-67
2021/09/08 01:16:48;;;;;;;0.30;0.30;;;;;;;;;;4978589;28;20431;-65
2021/09/08 01:19:14;;;;;;;0.30;0.30;;;;;;;;;;4973298;28;20416;-65
2021/09/08 01:21:40;;;;;;;0.30;0.30;;;;;;;;;;4987331;28;20433;-60
2021/09/08 01:24:06;;;;;;;0.30;0.30;;;;;;;;;;4986359;28;20987;-65
2021/09/08 01:26:34;;;;;;;0.30;0.30;;;;;;;;;;4987297;28;20465;-66
2021/09/08 01:29:00;;;;;;;0.30;0.30;;;;;;;;;;4991925;28;20474;-66
2021/09/08 01:31:27;;;;;;;0.30;0.30;;;;;;;;;;4988912;28;20470;-65
2021/09/08 01:33:53;;;;;;;0.30;0.30;;;;;;;;;;4980957;28;20449;-65
2021/09/08 01:36:19;;;;;;;0.30;0.30;;;;;;;;;;4990185;28;20477;-65
2021/09/08 01:38:45;;;;;;;0.30;0.30;;;;;;;;;;4988895;28;20566;-63
2021/09/08 01:41:11;;;;;;;0.30;0.30;;;;;;;;;;4991652;28;20445;-65
2021/09/08 01:43:37;;;;;;;0.30;0.30;;;;;;;;;;4989912;28;20524;-64
2021/09/08 01:46:03;;;;;;;0.30;0.30;;;;;;;;;;4984149;28;20503;-65
2021/09/08 01:48:29;;;;;;;0.40;0.40;;;;;;;;;;4990700;28;20866;-64
2021/09/08 01:50:55;;;;;;;0.30;0.30;;;;;;;;;;4988547;28;20939;-63
2021/09/08 01:53:23;;;;;;;0.30;0.30;;;;;;;;;;4989766;28;20518;-66
2021/09/08 01:55:49;;;;;;;0.30;0.30;;;;;;;;;;4991903;28;20524;-66
2021/09/08 01:58:15;;;;;;;0.30;0.30;;;;;;;;;;4990964;28;20558;-67
2021/09/08 02:00:41;;;;;;;0.30;0.30;;;;;;;;;;4990017;28;20429;-65
2021/09/08 02:03:07;;;;;;;0.30;0.30;;;;;;;;;;4987747;28;20702;-60
2021/09/08 02:05:33;;;;;;;0.30;0.30;;;;;;;;;;4987712;28;20472;-66
2021/09/08 02:07:59;;;;;;;0.30;0.30;;;;;;;;;;4964753;28;20503;-67
2021/09/08 02:10:25;;;;;;;0.30;0.30;;;;;;;;;;4989218;28;20431;-67
2021/09/08 02:12:51;;;;;;;0.30;0.30;;;;;;;;;;4984984;28;20204;-67
2021/09/08 02:15:17;;;;;;;0.30;0.30;;;;;;;;;;4976810;28;20204;-67
2021/09/08 02:17:43;;;;;;;0.30;0.30;;;;;;;;;;4995402;28;20438;-67
2021/09/08 02:20:10;;;;;;;0.30;0.30;;;;;;;;;;4988267;28;20424;-67
2021/09/08 02:22:36;;;;;;;0.30;0.30;;;;;;;;;;4984832;28;20183;-67
2021/09/08 02:25:02;;;;;;;0.30;0.30;;;;;;;;;;4990002;28;20638;-66
2021/09/08 02:27:28;;;;;;;0.30;0.30;;;;;;;;;;4995913;28;20222;-66
2021/09/08 02:29:54;;;;;;;0.30;0.30;;;;;;;;;;4994566;28;20427;-66
2021/09/08 02:32:20;;;;;;;0.30;0.30;;;;;;;;;;4994014;28;20211;-64
2021/09/08 02:34:46;;;;;;;0.30;0.30;;;;;;;;;;4991389;28;20201;-67
2021/09/08 02:37:13;;;;;;;0.30;0.30;;;;;;;;;;4993888;28;20497;-67
2021/09/08 02:39:39;;;;;;;0.30;0.30;;;;;;;;;;4991625;28;20191;-66
2021/09/08 02:42:05;;;;;;;0.30;0.30;;;;;;;;;;4978731;28;20255;-67
2021/09/08 02:44:31;;;;;;;0.30;0.30;;;;;;;;;;4993188;28;20461;-67
2021/09/08 02:46:57;;;;;;;0.30;0.30;;;;;;;;;;4993935;28;20182;-64
2021/09/08 02:49:23;;;;;;;0.30;0.30;;;;;;;;;;4984533;28;20203;-67
2021/09/08 02:51:49;;;;;;;0.30;0.30;;;;;;;;;;4975477;28;20824;-65
2021/09/08 02:54:15;;;;;;;0.30;0.30;;;;;;;;;;4994370;28;20216;-66
2021/09/08 02:56:41;;;;;;;0.30;0.30;;;;;;;;;;4989874;28;20179;-67
2021/09/08 02:59:07;;;;;;;0.30;0.30;;;;;;;;;;4994041;28;20189;-67
2021/09/08 03:01:33;;;;;;;0.30;0.30;;;;;;;;;;4992991;28;20447;-66
2021/09/08 03:03:59;;;;;;;0.30;0.30;;;;;;;;;;4995028;28;20430;-66
2021/09/08 03:06:25;;;;;;;0.30;0.30;;;;;;;;;;4989553;28;20178;-66
2021/09/08 03:08:51;;;;;;;0.30;0.30;;;;;;;;;;4977013;28;20443;-67
2021/09/08 03:11:17;;;;;;;0.30;0.30;;;;;;;;;;4984067;28;20461;-67
2021/09/08 03:13:43;;;;;;;0.30;0.30;;;;;;;;;;4985580;28;20433;-66
2021/09/08 03:16:09;;;;;;;0.30;0.30;;;;;;;;;;4989436;28;20443;-65
2021/09/08 03:18:35;;;;;;;0.30;0.30;;;;;;;;;;4995051;28;20773;-67
2021/09/08 03:21:01;;;;;;;0.30;0.30;;;;;;;;;;4985563;28;20194;-66
2021/09/08 03:23:27;;;;;;;0.30;0.30;;;;;;;;;;4980523;28;20471;-65
2021/09/08 03:25:53;;;;;;;0.40;0.40;;;;;;;;;;4988453;28;20513;-66
2021/09/08 03:28:19;;;;;;;0.30;0.30;;;;;;;;;;4994791;28;20410;-66
2021/09/08 03:30:45;;;;;;;0.30;0.30;;;;;;;;;;4992167;28;20435;-65
2021/09/08 03:33:11;;;;;;;0.30;0.30;;;;;;;;;;4993488;28;20463;-62
2021/09/08 03:35:37;;;;;;;0.30;0.20;;;;;;;;;;4988521;28;20460;-66
2021/09/08 03:38:03;;;;;;;0.30;0.30;;;;;;;;;;4984558;28;20189;-66
2021/09/08 03:40:29;;;;;;;0.30;0.30;;;;;;;;;;4991972;28;20202;-67
2021/09/08 03:42:55;;;;;;;0.30;0.30;;;;;;;;;;4987775;28;20450;-66
2021/09/08 03:45:21;;;;;;;0.30;0.30;;;;;;;;;;4993714;28;20519;-65
2021/09/08 03:47:47;;;;;;;0.30;0.30;;;;;;;;;;4994329;28;20899;-66
2021/09/08 03:50:13;;;;;;;0.30;0.30;;;;;;;;;;4992131;28;20476;-64
2021/09/08 03:52:39;;;;;;;0.30;0.30;;;;;;;;;;4989023;28;20178;-64
2021/09/08 03:55:06;;;;;;;0.30;0.30;;;;;;;;;;5015180;22;20222;-65
2021/09/08 03:57:32;;;;;;;0.30;0.30;;;;;;;;;;4986147;28;20430;-65
2021/09/08 03:59:58;;;;;;;0.30;0.30;;;;;;;;;;4992789;28;20229;-65
2021/09/08 04:02:24;;;;;;;0.30;0.30;;;;;;;;;;4989653;28;20186;-65
2021/09/08 04:04:50;;;;;;;0.30;0.30;;;;;;;;;;4978604;28;20496;-65
2021/09/08 04:07:16;;;;;;;0.30;0.30;;;;;;;;;;4974626;28;20437;-65
2021/09/08 04:09:42;;;;;;;0.30;0.30;;;;;;;;;;4989128;28;20175;-65
2021/09/08 04:12:08;;;;;;;0.30;0.30;;;;;;;;;;4974441;28;20465;-65
2021/09/08 04:14:34;;;;;;;0.30;0.30;;;;;;;;;;4987352;28;20230;-65
2021/09/08 04:17:00;;;;;;;0.30;0.30;;;;;;;;;;4992933;28;20214;-65
2021/09/08 04:19:26;;;;;;;0.40;0.40;;;;;;;;;;4975259;28;20434;-65
2021/09/08 04:21:52;;;;;;;0.30;0.30;;;;;;;;;;4993158;28;21114;-65
2021/09/08 04:24:18;;;;;;;0.30;0.30;;;;;;;;;;4992023;28;20244;-65
2021/09/08 04:26:44;;;;;;;0.30;0.30;;;;;;;;;;4992927;28;20426;-66
2021/09/08 04:29:10;;;;;;;0.30;0.30;;;;;;;;;;4991918;28;20423;-66
2021/09/08 04:31:36;;;;;;;0.30;0.30;;;;;;;;;;4986608;28;20429;-65
2021/09/08 04:34:06;;;;;;;0.30;0.20;;;;;;;;;;4988661;28;20317;-65
2021/09/08 04:36:32;;;;;;;0.30;0.30;;;;;;;;;;4989119;28;20211;-66
2021/09/08 04:38:58;;;;;;;0.30;0.30;;;;;;;;;;4979359;28;20175;-66
2021/09/08 04:41:24;;;;;;;0.30;0.30;;;;;;;;;;4981304;28;20183;-65
2021/09/08 04:43:50;;;;;;;0.30;0.30;;;;;;;;;;4970308;28;20448;-65
2021/09/08 04:46:16;;;;;;;0.30;0.27;;;;;;;;;;4982856;28;20554;-65
2021/09/08 04:48:42;;;;;;;0.30;0.30;;;;;;;;;;4986988;28;20908;-65
2021/09/08 04:51:08;;;;;;;0.30;0.30;;;;;;;;;;4977386;28;20463;-65
2021/09/08 04:53:34;;;;;;;0.40;0.40;;;;;;;;;;4977454;28;20285;-65
2021/09/08 04:56:00;;;;;;;0.30;0.30;;;;;;;;;;4986241;28;20245;-65
2021/09/08 04:58:26;;;;;;;0.30;0.30;;;;;;;;;;4973355;28;20448;-65
2021/09/08 05:00:52;;;;;;;0.30;0.30;;;;;;;;;;4981718;28;20446;-65
2021/09/08 05:03:18;;;;;;;0.30;0.30;;;;;;;;;;4984259;28;20442;-65
2021/09/08 05:05:44;;;;;;;0.30;0.30;;;;;;;;;;4985371;28;20222;-64
2021/09/08 05:08:10;;;;;;;0.30;0.30;;;;;;;;;;4983625;28;20256;-64
2021/09/08 05:10:36;;;;;;;0.30;0.30;;;;;;;;;;4979619;28;20650;-65
2021/09/08 05:13:02;;;;;;;0.30;0.30;;;;;;;;;;4982532;28;20434;-65
2021/09/08 05:15:28;;;;;;;0.30;0.30;;;;;;;;;;4983067;28;20209;-65
2021/09/08 05:17:54;;;;;;;0.30;0.30;;;;;;;;;;4983330;28;20433;-65
2021/09/08 05:20:20;;;;;;;0.30;0.30;;;;;;;;;;4968504;28;21753;-65
2021/09/08 05:22:46;;;;;;;0.30;0.30;;;;;;;;;;4984534;28;20265;-65
2021/09/08 05:25:12;;;;;;;0.30;0.30;;;;;;;;;;4980760;28;20964;-65
2021/09/08 05:27:38;;;;;;;0.30;0.30;;;;;;;;;;4981044;28;20201;-65
2021/09/08 05:30:05;;;;;;;0.30;0.30;;;;;;;;;;4984434;28;20230;-65
2021/09/08 05:32:31;;;;;;;0.30;0.30;;;;;;;;;;4983698;28;20206;-65
2021/09/08 05:34:57;;;;;;;0.30;0.30;;;;;;;;;;4981356;28;20241;-65
2021/09/08 05:37:24;;;;;;;0.30;0.30;;;;;;;;;;4986444;28;20252;-66
2021/09/08 05:39:50;;;;;;;0.30;0.30;;;;;;;;;;4984536;28;20194;-66
2021/09/08 05:42:16;;;;;;;0.30;0.30;;;;;;;;;;4983779;28;20191;-65
2021/09/08 05:44:42;;;;;;;0.30;0.30;;;;;;;;;;4984155;28;20242;-65
2021/09/08 05:47:08;;;;;;;0.30;0.30;;;;;;;;;;4965899;28;20211;-65
2021/09/08 05:49:34;;;;;;;0.30;0.30;;;;;;;;;;4976884;28;20179;-65
2021/09/08 05:52:02;;;;;;;0.30;0.30;;;;;;;;;;4967519;28;20182;-65
2021/09/08 05:54:28;;;;;;;0.30;0.30;;;;;;;;;;4968366;28;20178;-66
2021/09/08 05:56:54;;;;;;;0.30;0.30;;;;;;;;;;4967127;28;20219;-65
2021/09/08 05:59:20;;;;;;;0.30;0.30;;;;;;;;;;4982595;28;20209;-65
2021/09/08 06:01:46;;;;;;;0.30;0.30;;;;;;;;;;4987003;28;20446;-65
2021/09/08 06:04:12;;;;;;;0.30;0.30;;;;;;;;;;4982202;28;20445;-65
2021/09/08 06:06:38;;;;;;;0.30;0.30;;;;;;;;;;4983101;28;20832;-66
2021/09/08 06:09:04;;;;;;;0.30;0.30;;;;;;;;;;4976803;28;20442;-65
2021/09/08 06:11:31;;;;;;;0.30;0.30;;;;;;;;;;4981941;28;20525;-65
2021/09/08 06:13:57;;;;;;;0.30;0.30;;;;;;;;;;4989171;28;20232;-65
2021/09/08 06:16:23;;;;;;;0.30;0.30;;;;;;;;;;4989944;28;20653;-65
2021/09/08 06:18:49;;;;;;;0.30;0.30;;;;;;;;;;4986499;28;20437;-65
2021/09/08 06:21:17;;;;;;;0.30;0.30;;;;;;;;;;4991501;28;20233;-65
2021/09/08 06:23:43;;;;;;;0.30;0.30;;;;;;;;;;4980956;28;20418;-65
2021/09/08 06:26:09;;;;;;;0.30;0.30;;;;;;;;;;4975257;28;20316;-65
2021/09/08 06:28:35;;;;;;;0.30;0.30;;;;;;;;;;4987571;28;20234;-65
2021/09/08 06:31:01;;;;;;;0.30;0.30;;;;;;;;;;4986885;28;20445;-65
2021/09/08 06:33:28;;;;;;;0.30;0.30;;;;;;;;;;4987972;28;20483;-65
2021/09/08 06:35:54;;;;;;;0.30;0.30;;;;;;;;;;4974757;28;20240;-65
2021/09/08 06:38:20;;;;;;;0.30;0.30;;;;;;;;;;4977078;28;20214;-65
2021/09/08 06:40:46;;;;;;;0.30;0.30;;;;;;;;;;4973147;28;20415;-65
2021/09/08 06:43:12;;;;;;;0.30;0.30;;;;;;;;;;4989828;28;20435;-65
2021/09/08 06:45:38;;;;;;;0.30;0.30;;;;;;;;;;4988935;28;20825;-65
2021/09/08 06:48:04;;;;;;;0.30;0.30;;;;;;;;;;4991836;28;20472;-65
2021/09/08 06:50:30;;;;;;;0.30;0.30;;;;;;;;;;4986750;28;20444;-65
2021/09/08 06:52:56;;;;;;;0.30;0.30;;;;;;;;;;4990067;28;20187;-65
2021/09/08 06:55:22;;;;;;;0.30;0.30;;;;;;;;;;4989344;28;20531;-65
2021/09/08 06:57:48;;;;;;;0.30;0.30;;;;;;;;;;4970166;28;20446;-65
2021/09/08 07:00:14;;;;;;;0.30;0.30;;;;;;;;;;4992382;28;20532;-65
2021/09/08 07:02:40;;;;;;;0.30;0.30;;;;;;;;;;4986015;28;20455;-65
2021/09/08 07:05:07;;;;;;;0.30;0.30;;;;;;;;;;4986756;28;20507;-66
2021/09/08 07:07:33;;;;;;;0.30;0.20;;;;;;;;;;4989977;28;20669;-65
2021/09/08 07:09:59;;;;;;;0.30;0.30;;;;;;;;;;4993632;28;20257;-66
2021/09/08 07:12:25;;;;;;;0.30;0.30;;;;;;;;;;4993251;28;20517;-66
2021/09/08 07:14:51;;;;;;;0.30;0.30;;;;;;;;;;4993727;28;20965;-66
2021/09/08 07:17:17;;;;;;;0.30;0.30;;;;;;;;;;4990759;28;20449;-66
2021/09/08 07:19:43;;;;;;;0.30;0.30;;;;;;;;;;4991886;28;20463;-66
2021/09/08 07:22:09;;;;;;;0.30;0.30;;;;;;;;;;4994185;28;20456;-66
2021/09/08 07:24:35;;;;;;;0.30;0.30;;;;;;;;;;4991166;28;20533;-66
2021/09/08 07:27:01;;;;;;;0.30;0.30;;;;;;;;;;4982902;28;20506;-66
2021/09/08 07:29:27;;;;;;;0.30;0.30;;;;;;;;;;4992494;28;20454;-66
2021/09/08 07:31:53;;;;;;;0.30;0.30;;;;;;;;;;4981888;28;20932;-66
2021/09/08 07:34:19;;;;;;;0.30;0.30;;;;;;;;;;4993075;28;20428;-66
2021/09/08 07:36:45;;;;;;;0.30;0.30;;;;;;;;;;4994547;28;20828;-66
2021/09/08 07:39:11;;;;;;;0.30;0.30;;;;;;;;;;4986355;28;20436;-66
2021/09/08 07:41:37;;;;;;;0.30;0.30;;;;;;;;;;4991753;28;20520;-66
2021/09/08 07:44:03;;;;;;;0.30;0.30;;;;;;;;;;4988633;28;20415;-65
2021/09/08 07:46:29;;;;;;;0.40;0.40;;;;;;;;;;4991509;28;20450;-65
2021/09/08 07:48:55;;;;;;;0.30;0.30;;;;;;;;;;4988851;28;20428;-65
2021/09/08 07:51:21;;;;;;;0.30;0.30;;;;;;;;;;4978629;28;20419;-69
2021/09/08 07:53:47;;;;;;;0.30;0.30;;;;;;;;;;4993837;28;20435;-65
2021/09/08 07:56:13;;;;;;;0.30;0.20;;;;;;;;;;4987211;28;20484;-65
2021/09/08 07:58:39;;;;;;;0.30;0.30;;;;;;;;;;4985535;28;20444;-65
2021/09/08 08:01:05;;;;;;;0.30;0.30;;;;;;;;;;4991375;28;20946;-65
2021/09/08 08:03:31;;;;;;;0.30;0.30;;;;;;;;;;4993752;28;20413;-65
2021/09/08 08:05:57;;;;;;;0.30;0.30;;;;;;;;;;4992190;28;20519;-65
2021/09/08 08:08:23;;;;;;;0.30;0.30;;;;;;;;;;4993930;28;20429;-65
2021/09/08 08:10:49;;;;;;;0.30;0.30;;;;;;;;;;4992386;28;20607;-65
2021/09/08 08:13:15;;;;;;;0.30;0.30;;;;;;;;;;4993646;28;20405;-66
2021/09/08 08:15:41;;;;;;;0.30;0.30;;;;;;;;;;4993062;28;20631;-66
2021/09/08 08:18:07;;;;;;;0.30;0.20;;;;;;;;;;4993533;28;20892;-66
2021/09/08 08:20:33;;;;;;;0.30;0.20;;;;;;;;;;4993453;28;20413;-66
2021/09/08 08:22:59;;;;;;;0.30;0.20;;;;;;;;;;4993341;28;20441;-65
2021/09/08 08:25:29;;;;;;;0.30;0.20;;;;;;;;;;4991150;28;20477;-65
2021/09/08 08:28:00;;;;;;;0.30;0.20;;;;;;;;;;4993363;28;20905;-66
2021/09/08 08:30:26;;;;;;;0.30;0.20;;;;;;;;;;4993254;28;20496;-66
2021/09/08 08:32:52;;;;;;;0.30;0.20;;;;;;;;;;4993669;28;20500;-66
2021/09/08 08:35:19;;;;;;;0.30;0.27;;;;;;;;;;4991552;28;20485;-65
2021/09/08 08:37:45;;;;;;;0.30;0.30;;;;;;;;;;4975682;28;20425;-66
2021/09/08 08:40:12;;;;;;;0.30;0.20;;;;;;;;;;4992756;28;20421;-66
2021/09/08 08:42:38;;;;;;;0.30;0.20;;;;;;;;;;4993447;28;20588;-66
2021/09/08 08:45:05;;;;;;;0.30;0.20;;;;;;;;;;4992500;28;20529;-66
2021/09/08 08:47:31;;;;;;;0.30;0.20;;;;;;;;;;4993205;28;20405;-66
2021/09/08 08:49:57;;;;;;;0.30;0.20;;;;;;;;;;4993031;28;20457;-66
2021/09/08 08:52:23;;;;;;;0.30;0.20;;;;;;;;;;4992155;28;20447;-66
2021/09/08 08:54:49;;;;;;;0.30;0.20;;;;;;;;;;4992927;28;20449;-65
2021/09/08 08:57:16;;;;;;;0.30;0.20;;;;;;;;;;4992440;28;20421;-66
2021/09/08 08:59:43;;;;;;;0.30;0.20;;;;;;;;;;4993080;28;20381;-65
2021/09/08 09:02:19;;;;;;;0.20;0.20;;;;;;;;;;4992514;28;20410;-65
2021/09/08 09:04:45;;;;;;;0.20;0.20;;;;;;;;;;4992230;28;20468;-65
2021/09/08 09:07:25;;;;;;;0.20;0.20;;;;;;;;;;4992064;28;20807;-66
2021/09/08 09:10:12;;;;;;;0.20;0.20;;;;;;;;;;4993103;28;20399;-66
2021/09/08 09:12:40;;;;;;;0.20;0.20;;;;;;;;;;4992553;28;20388;-66
2021/09/08 09:15:07;;;;;;;0.30;0.20;;;;;;;;;;4992100;28;20547;-66
2021/09/08 09:17:34;;;;;;;0.30;0.20;;;;;;;;;;4992700;28;20409;-66
2021/09/08 09:20:10;;;;;;;0.20;0.20;;;;;;;;;;4991422;28;20539;-67
2021/09/08 09:22:36;;;;;;;0.20;0.20;;;;;;;;;;4991751;28;20475;-67
2021/09/08 09:25:03;;;;;;;0.20;0.20;;;;;;;;;;4992231;28;20463;-67
2021/09/08 09:27:33;;;;;;;0.20;0.20;;;;;;;;;;4991938;28;20442;-67
2021/09/08 09:30:03;;;;;;;0.20;0.20;;;;;;;;;;4992317;28;20832;-67
2021/09/08 09:32:39;;;;;;;0.20;0.20;;;;;;;;;;4992593;28;20449;-66
2021/09/08 09:35:07;;;;;;;0.20;0.20;;;;;;;;;;4991296;28;20429;-67
2021/09/08 09:37:33;;;;;;;0.20;0.20;;;;;;;;;;4992583;28;20897;-66
2021/09/08 09:40:04;;;;;;;0.20;0.20;;;;;;;;;;4974727;28;20422;-66
2021/09/08 09:42:33;;;;;;;0.20;0.20;;;;;;;;;;4992334;28;20421;-67
2021/09/08 09:45:00;;;;;;;0.20;0.20;;;;;;;;;;4992485;28;20530;-67
2021/09/08 09:47:27;;;;;;;0.20;0.20;;;;;;;;;;4992138;28;20440;-67
2021/09/08 09:49:57;;;;;;;0.20;0.20;;;;;;;;;;4992363;28;20417;-67
2021/09/08 09:52:27;;;;;;;0.20;0.20;;;;;;;;;;4979439;28;20477;-64
2021/09/08 09:54:53;;;;;;;0.20;0.20;;;;;;;;;;5008382;22;20445;-63
2021/09/08 09:57:19;;;;;;;0.20;0.20;;;;;;;;;;4972083;28;20423;-65
2021/09/08 09:59:45;;;;;;;0.20;0.20;;;;;;;;;;4974039;28;20412;-63
2021/09/08 10:02:12;;;;;;;0.20;0.20;;;;;;;;;;4972789;28;20406;-63
2021/09/08 10:04:38;;;;;;;0.20;0.20;;;;;;;;;;4959967;28;20454;-65
2021/09/08 10:07:06;;;;;;;0.20;0.20;;;;;;;;;;4953767;29;20435;-65
2021/09/08 10:09:35;;;;;;;0.20;0.20;;;;;;;;;;4953294;28;20396;-63
2021/09/08 10:12:02;;;;;;;0.20;0.20;;;;;;;;;;4972391;28;20438;-63
2021/09/08 10:14:30;;;;;;;0.20;0.20;;;;;;;;;;4972785;28;20928;-63
2021/09/08 10:17:00;;;;;;;0.20;0.20;;;;;;;;;;4972209;28;20434;-63
2021/09/08 10:19:27;;;;;;;0.20;0.20;;;;;;;;;;4972501;28;20883;-63
2021/09/08 10:21:54;;;;;;;0.20;0.20;;;;;;;;;;4972470;28;20408;-63
2021/09/08 10:24:21;;;;;;;0.20;0.20;;;;;;;;;;4972428;28;20410;-65
2021/09/08 10:26:47;;;;;;;0.20;0.20;;;;;;;;;;4971708;28;20473;-65
2021/09/08 10:29:14;;;;;;;0.20;0.20;;;;;;;;;;4971556;28;20910;-65
2021/09/08 10:31:48;;;;;;;0.20;0.20;;;;;;;;;;4969893;28;21016;-65
2021/09/08 10:34:16;;;;;;;0.20;0.20;;;;;;;;;;4981933;28;20422;-65
2021/09/08 10:36:43;;;;;;;0.20;0.20;;;;;;;;;;4971538;28;20438;-65
2021/09/08 10:39:14;;;;;;;0.20;0.20;;;;;;;;;;4967674;28;20446;-65
2021/09/08 10:41:43;;;;;;;0.20;0.20;;;;;;;;;;4966464;28;20486;-63
2021/09/08 10:44:10;;;;;;;0.20;0.20;;;;;;;;;;4968663;28;20483;-64
2021/09/08 10:46:55;;;;;;;0.20;0.20;;;;;;;;;;4961395;28;21026;-64
2021/09/08 10:49:39;;;;;;;0.20;0.20;;;;;;;;;;4956570;29;20400;-65
2021/09/08 10:52:05;;;;;;;0.20;0.20;;;;;;;;;;4971806;28;20406;-64
2021/09/08 10:54:31;;;;;;;0.20;0.20;;;;;;;;;;4994853;28;20834;-63
2021/09/08 10:56:58;;;;;;;0.20;0.20;;;;;;;;;;4978615;28;20816;-64
2021/09/08 10:59:24;;;;;;;0.20;0.20;;;;;;;;;;4973965;28;20414;-63
2021/09/08 11:01:54;;;;;;;0.20;0.20;;;;;;;;;;4972801;28;20457;-64
2021/09/08 11:04:20;;;;;;;0.20;0.20;;;;;;;;;;4978802;28;20913;-64
2021/09/08 11:06:48;;;;;;;0.20;0.20;;;;;;;;;;4977155;28;20537;-63
2021/09/08 11:09:15;;;;;;;0.20;0.20;;;;;;;;;;4973790;28;20418;-63
2021/09/08 11:11:56;;;;;;;0.20;0.20;;;;;;;;;;4975284;28;20962;-63
2021/09/08 11:14:23;;;;;;;0.20;0.20;;;;;;;;;;4975464;28;20784;-63
2021/09/08 11:16:49;;;;;;;0.20;0.20;;;;;;;;;;4974172;28;20528;-63
2021/09/08 11:19:15;;;;;;;0.20;0.20;;;;;;;;;;4973094;28;20521;-63
2021/09/08 11:21:41;;;;;;;0.20;0.20;;;;;;;;;;4974909;28;20411;-63
2021/09/08 11:24:09;;;;;;;0.20;0.20;;;;;;;;;;4974366;28;20485;-63
2021/09/08 11:26:36;;;;;;;0.20;0.20;;;;;;;;;;4975207;28;20517;-64
2021/09/08 11:29:04;;;;;;;0.20;0.20;;;;;;;;;;4973942;28;20916;-63
2021/09/08 11:31:40;;;;;;;0.20;0.20;;;;;;;;;;4974447;28;20792;-63
2021/09/08 11:34:23;;;;;;;0.20;0.20;;;;;;;;;;4956794;28;20426;-64
2021/09/08 11:36:50;;;;;;;0.20;0.20;;;;;;;;;;4975054;28;20444;-63
2021/09/08 11:39:16;;;;;;;0.20;0.20;;;;;;;;;;4974733;28;20406;-63
2021/09/08 11:42:03;;;;;;;0.20;0.20;;;;;;;;;;4974958;28;20409;-63
2021/09/08 11:44:29;;;;;;;0.20;0.20;;;;;;;;;;4974517;28;20456;-63
2021/09/08 11:46:56;;;;;;;0.20;0.20;;;;;;;;;;4974139;28;20446;-63
2021/09/08 11:49:22;;;;;;;0.20;0.20;;;;;;;;;;4975067;28;20461;-63
2021/09/08 11:51:48;;;;;;;0.20;0.20;;;;;;;;;;4973482;28;20481;-63
2021/09/08 11:54:15;;;;;;;0.20;0.20;;;;;;;;;;4974261;28;20409;-63
2021/09/08 11:56:41;;;;;;;0.20;0.20;;;;;;;;;;4974400;28;20494;-63
2021/09/08 11:59:08;;;;;;;0.20;0.20;;;;;;;;;;4974967;28;20479;-63
2021/09/08 12:01:41;;;;;;;0.20;0.20;;;;;;;;;;4974417;28;20417;-63
2021/09/08 12:04:09;;;;;;;0.20;0.20;;;;;;;;;;4974564;28;20856;-63
2021/09/08 12:06:54;;;;;;;0.20;0.20;;;;;;;;;;4972085;28;20587;-63
2021/09/08 12:09:24;;;;;;;0.20;0.20;;;;;;;;;;4961347;28;20489;-63
2021/09/08 12:12:00;;;;;;;0.20;0.20;;;;;;;;;;4974262;28;20440;-63
2021/09/08 12:14:26;;;;;;;0.20;0.20;;;;;;;;;;4974383;28;20395;-63
2021/09/08 12:17:00;;;;;;;0.20;0.20;;;;;;;;;;4974995;28;21165;-63
2021/09/08 12:19:32;;;;;;;0.20;0.20;;;;;;;;;;4973669;28;20497;-63
2021/09/08 12:22:14;;;;;;;0.20;0.20;;;;;;;;;;4974408;28;20928;-62
2021/09/08 12:24:46;;;;;;;0.20;0.20;;;;;;;;;;4952327;28;20479;-65
2021/09/08 12:27:26;;;;;;;0.20;0.20;;;;;;;;;;4967084;28;20419;-63
2021/09/08 12:29:53;;;;;;;0.20;0.20;;;;;;;;;;4974244;28;20452;-63
2021/09/08 12:32:19;;;;;;;0.20;0.20;;;;;;;;;;4973956;28;20443;-65
2021/09/08 12:34:46;;;;;;;0.20;0.20;;;;;;;;;;4961127;28;20475;-65
2021/09/08 12:37:12;;;;;;;0.20;0.20;;;;;;;;;;4954685;29;20402;-64
2021/09/08 12:39:45;;;;;;;0.20;0.20;;;;;;;;;;4954880;29;20476;-65
2021/09/08 12:42:18;;;;;;;0.20;0.20;;;;;;;;;;4969728;28;20433;-64
2021/09/08 12:44:44;;;;;;;0.30;0.30;;;;;;;;;;4973424;28;20434;-63
2021/09/08 12:47:14;;;;;;;0.20;0.20;;;;;;;;;;4974457;28;20398;-63
2021/09/08 12:49:41;;;;;;;0.20;0.20;;;;;;;;;;4974510;28;20459;-64
2021/09/08 12:52:08;;;;;;;0.20;0.20;;;;;;;;;;4974594;28;20417;-64
2021/09/08 12:54:34;;;;;;;0.20;0.20;;;;;;;;;;4973570;28;20419;-64
2021/09/08 12:57:00;;;;;;;0.20;0.20;;;;;;;;;;4973965;28;20452;-64
2021/09/08 12:59:29;;;;;;;0.20;0.20;;;;;;;;;;4970868;28;20434;-64
2021/09/08 13:01:55;;;;;;;0.20;0.20;;;;;;;;;;4973917;28;20790;-64
2021/09/08 13:04:21;;;;;;;0.20;0.20;;;;;;;;;;4973107;28;20430;-64
2021/09/08 13:06:47;;;;;;;0.20;0.20;;;;;;;;;;4974331;28;20431;-63
2021/09/08 13:09:14;;;;;;;0.20;0.20;;;;;;;;;;4974477;28;20414;-63
2021/09/08 13:11:40;;;;;;;0.20;0.20;;;;;;;;;;4973659;28;20415;-64
2021/09/08 13:14:06;;;;;;;0.20;0.20;;;;;;;;;;4960711;28;20423;-64
2021/09/08 13:16:33;;;;;;;0.20;0.20;;;;;;;;;;4968060;28;20961;-64
2021/09/08 13:18:59;;;;;;;0.20;0.20;;;;;;;;;;4974494;28;20477;-64
2021/09/08 13:21:26;;;;;;;0.20;0.20;;;;;;;;;;4973830;28;20420;-64
2021/09/08 13:23:52;;;;;;;0.20;0.20;;;;;;;;;;4973312;28;20431;-63
2021/09/08 13:26:18;;;;;;;0.20;0.20;;;;;;;;;;4973179;28;20467;-64
2021/09/08 13:28:44;;;;;;;0.20;0.20;;;;;;;;;;4973293;28;20897;-63
2021/09/08 13:31:13;;;;;;;0.20;0.20;;;;;;;;;;4973382;28;20501;-63
2021/09/08 13:33:39;;;;;;;0.20;0.20;;;;;;;;;;4965300;28;20459;-63
2021/09/08 13:36:05;;;;;;;0.20;0.20;;;;;;;;;;4972800;28;20443;-63
2021/09/08 13:38:31;;;;;;;0.20;0.20;;;;;;;;;;4973115;28;20921;-63
2021/09/08 13:40:57;;;;;;;0.20;0.20;;;;;;;;;;4972727;28;20405;-63
2021/09/08 13:43:23;;;;;;;0.20;0.20;;;;;;;;;;4972669;28;20458;-64
2021/09/08 13:45:50;;;;;;;0.20;0.20;;;;;;;;;;4972784;28;20555;-64
2021/09/08 13:48:17;;;;;;;0.20;0.20;;;;;;;;;;4972272;28;20441;-63
2021/09/08 13:50:44;;;;;;;0.20;0.20;;;;;;;;;;4971650;28;20413;-64
2021/09/08 13:53:10;;;;;;;0.20;0.20;;;;;;;;;;4972782;28;20430;-64
2021/09/08 13:55:36;;;;;;;0.20;0.20;;;;;;;;;;4972823;28;20446;-63
2021/09/08 13:58:05;;;;;;;0.20;0.20;;;;;;;;;;4973194;28;20889;-63
2021/09/08 14:00:31;;;;;;;0.20;0.20;;;;;;;;;;4972767;28;20465;-63
2021/09/08 14:02:57;;;;;;;0.20;0.20;;;;;;;;;;4972907;28;20487;-63
2021/09/08 14:05:23;;;;;;;0.20;0.20;;;;;;;;;;4960021;28;20484;-63
2021/09/08 14:07:49;;;;;;;0.20;0.20;;;;;;;;;;4972539;28;20529;-63
2021/09/08 14:10:15;;;;;;;0.20;0.20;;;;;;;;;;4971322;28;20430;-63
2021/09/08 14:12:41;;;;;;;0.20;0.20;;;;;;;;;;4972390;28;20497;-63
2021/09/08 14:15:08;;;;;;;0.20;0.20;;;;;;;;;;4972224;28;20658;-64
2021/09/08 14:17:34;;;;;;;0.20;0.20;;;;;;;;;;4973052;28;20472;-64
2021/09/08 14:20:00;;;;;;;0.20;0.20;;;;;;;;;;4975760;28;20510;-64
2021/09/08 14:22:26;;;;;;;0.20;0.20;;;;;;;;;;4972045;28;20460;-64
2021/09/08 14:24:54;;;;;;;0.20;0.20;;;;;;;;;;4971968;28;20436;-64
2021/09/08 14:27:20;;;;;;;0.20;0.20;;;;;;;;;;4973047;28;20433;-64
2021/09/08 14:29:50;;;;;;;0.20;0.20;;;;;;;;;;4962796;28;20423;-64
2021/09/08 14:32:16;;;;;;;0.20;0.20;;;;;;;;;;4957579;28;20481;-64
2021/09/08 14:34:42;;;;;;;0.20;0.20;;;;;;;;;;4967243;28;20452;-64
2021/09/08 14:37:08;;;;;;;0.20;0.20;;;;;;;;;;4958883;28;20523;-64
2021/09/08 14:39:34;;;;;;;0.20;0.20;;;;;;;;;;4968155;28;20411;-64
2021/09/08 14:42:00;;;;;;;0.20;0.20;;;;;;;;;;4972280;28;21129;-64